createdAt,value
2022-12-23T00:00:49.031Z,21.5
2022-12-23T00:05:55.089Z,21.5
2022-12-23T00:11:01.196Z,21
2022-12-23T00:16:07.272Z,21.5
2022-12-23T00:21:13.369Z,21.5
2022-12-23T00:26:19.472Z,21.5
2022-12-23T00:31:24.585Z,21.5
2022-12-23T00:36:30.798Z,21.5
2022-12-23T00:41:36.814Z,21.5
2022-12-23T00:46:42.863Z,21.5
2022-12-23T00:51:48.949Z,21.5
2022-12-23T00:56:55.061Z,21.5
2022-12-23T01:02:01.154Z,21.5
2022-12-23T01:07:07.249Z,21.5
2022-12-23T01:12:13.351Z,21.5
2022-12-23T01:17:19.471Z,21.5
2022-12-23T01:22:25.550Z,21.5
2022-12-23T01:27:31.635Z,21.5
2022-12-23T01:32:37.741Z,21.5
2022-12-23T01:37:42.835Z,21.5
2022-12-23T01:42:48.947Z,21.5
2022-12-23T01:47:55.037Z,21.5
2022-12-23T01:53:01.127Z,21.5
2022-12-23T01:58:07.240Z,21.5
2022-12-23T02:03:13.342Z,21
2022-12-23T02:08:19.471Z,21
2022-12-23T02:13:25.514Z,21
2022-12-23T02:18:31.664Z,21
2022-12-23T02:23:37.706Z,21.5
2022-12-23T02:28:43.795Z,21.5
2022-12-23T02:33:49.892Z,21.5
2022-12-23T02:38:55.998Z,21.5
2022-12-23T02:44:01.094Z,21.5
2022-12-23T02:49:07.191Z,21.5
2022-12-23T02:54:13.303Z,21
2022-12-23T02:59:19.383Z,21.5
2022-12-23T03:04:25.483Z,21.5
2022-12-23T03:09:31.585Z,21.5
2022-12-23T03:14:37.838Z,21
2022-12-23T03:19:43.778Z,21
2022-12-23T03:24:49.859Z,21.5
2022-12-23T03:29:56.011Z,21
2022-12-23T03:35:02.081Z,21
2022-12-23T03:40:08.168Z,21.5
2022-12-23T03:45:14.240Z,21
2022-12-23T03:50:19.353Z,21.5
2022-12-23T03:55:25.469Z,21
2022-12-23T04:00:31.545Z,21.5
2022-12-23T04:05:37.655Z,21.5
2022-12-23T04:10:43.750Z,21.5
2022-12-23T04:15:49.848Z,21
2022-12-23T04:20:55.931Z,21.5
2022-12-23T04:26:02.044Z,21
2022-12-23T04:31:08.126Z,21.5
2022-12-23T04:36:14.220Z,21.5
2022-12-23T04:41:20.315Z,21.5
2022-12-23T04:46:26.414Z,21.5
2022-12-23T04:51:32.517Z,21.5
2022-12-23T04:56:37.649Z,21.5
2022-12-23T05:01:43.714Z,21
2022-12-23T05:06:49.819Z,21.5
2022-12-23T05:11:55.909Z,22
2022-12-23T05:17:02.012Z,21
2022-12-23T05:27:14.256Z,21.5
2022-12-23T05:32:20.301Z,21
2022-12-23T05:37:26.384Z,21.5
2022-12-23T05:42:32.486Z,21
2022-12-23T05:47:38.595Z,21
2022-12-23T05:52:44.672Z,21.5
2022-12-23T05:57:50.781Z,21.5
2022-12-23T06:02:55.886Z,21.5
2022-12-23T06:08:01.972Z,21.5
2022-12-23T06:13:08.076Z,21
2022-12-23T06:18:14.172Z,21
2022-12-23T06:23:20.272Z,21.5
2022-12-23T06:28:26.355Z,21.5
2022-12-23T06:33:32.471Z,21
2022-12-23T06:38:38.668Z,21
2022-12-23T06:43:44.676Z,21
2022-12-23T06:48:50.789Z,21
2022-12-23T06:53:56.842Z,21
2022-12-23T06:59:02.960Z,21
2022-12-23T07:04:09.085Z,21
2022-12-23T07:09:14.199Z,21
2022-12-23T07:14:20.326Z,21
2022-12-23T07:19:26.325Z,21
2022-12-23T07:24:32.479Z,21
2022-12-23T07:29:38.507Z,21
2022-12-23T07:34:44.620Z,21.5
2022-12-23T07:39:50.704Z,21
2022-12-23T07:44:56.796Z,21
2022-12-23T07:50:02.892Z,21
2022-12-23T07:55:09.011Z,21
2022-12-23T08:00:15.083Z,21
2022-12-23T08:05:21.244Z,21
2022-12-23T08:10:27.278Z,21.5
2022-12-23T08:15:32.400Z,23.5
2022-12-23T08:20:38.582Z,22.5
2022-12-23T08:25:44.594Z,22
2022-12-23T08:30:50.688Z,22.5
2022-12-23T08:35:56.780Z,22.5
2022-12-23T08:41:02.873Z,22.5
2022-12-23T08:46:08.980Z,23.5
2022-12-23T08:51:15.062Z,23
2022-12-23T08:56:21.148Z,23
2022-12-23T09:01:27.258Z,23
2022-12-23T09:06:33.343Z,23
2022-12-23T09:11:39.446Z,23
2022-12-23T09:16:45.616Z,23
2022-12-23T09:21:50.652Z,23.5
2022-12-23T09:26:56.760Z,23.5
2022-12-23T09:32:02.851Z,23
2022-12-23T09:37:08.957Z,23
2022-12-23T09:42:15.037Z,23.5
2022-12-23T09:47:21.153Z,23.5
2022-12-23T09:52:27.218Z,23
2022-12-23T09:57:33.308Z,23.5
2022-12-23T10:02:39.403Z,23.5
2022-12-23T10:07:45.519Z,23.5
2022-12-23T10:12:51.611Z,23.5
2022-12-23T10:17:57.690Z,23
2022-12-23T10:23:03.795Z,27
2022-12-23T10:28:08.897Z,27
2022-12-23T10:33:15.113Z,27
2022-12-23T10:38:21.101Z,27
2022-12-23T10:43:27.421Z,27
2022-12-23T10:48:33.450Z,26.5
2022-12-23T10:53:39.621Z,26.5
2022-12-23T10:58:45.629Z,26.5
2022-12-23T11:03:51.779Z,26.5
2022-12-23T11:08:57.853Z,26
2022-12-23T11:14:03.960Z,26
2022-12-23T11:19:10.044Z,26
2022-12-23T11:24:16.195Z,25.5
2022-12-23T11:29:22.194Z,25.5
2022-12-23T11:34:27.344Z,26
2022-12-23T11:39:33.432Z,26
2022-12-23T11:44:39.551Z,25
2022-12-23T11:49:45.606Z,25
2022-12-23T11:54:51.689Z,25
2022-12-23T11:59:57.811Z,25
2022-12-23T12:05:03.956Z,25
2022-12-23T12:10:10.003Z,25
2022-12-23T12:15:16.074Z,25
2022-12-23T12:20:22.137Z,25
2022-12-23T12:25:28.305Z,25
2022-12-23T12:30:34.426Z,25
2022-12-23T12:35:40.423Z,25
2022-12-23T12:40:45.528Z,25
2022-12-23T12:45:51.671Z,25
2022-12-23T12:50:57.757Z,25
2022-12-23T12:56:03.883Z,24.5
2022-12-23T13:01:09.789Z,25
2022-12-23T13:06:15.889Z,24.5
2022-12-23T13:11:22.165Z,25
2022-12-23T13:16:28.142Z,25
2022-12-23T13:21:34.358Z,24.5
2022-12-23T13:26:40.458Z,24.5
2022-12-23T13:31:46.401Z,24.5
2022-12-23T13:36:52.523Z,24.5
2022-12-23T13:41:58.728Z,24.5
2022-12-23T13:47:03.837Z,24
2022-12-23T13:52:09.963Z,24
2022-12-23T13:57:16.010Z,24.5
2022-12-23T14:02:22.056Z,24.5
2022-12-23T14:07:28.245Z,24
2022-12-23T14:12:34.337Z,24.5
2022-12-23T14:17:39.293Z,23.5
2022-12-23T14:22:45.511Z,24
2022-12-23T14:27:51.628Z,23.5
2022-12-23T14:32:57.697Z,23.5
2022-12-23T14:38:03.863Z,23.5
2022-12-23T14:43:09.896Z,23.5
2022-12-23T14:48:16.002Z,24
2022-12-23T14:53:21.930Z,23.5
2022-12-23T14:58:28.206Z,23.5
2022-12-23T15:03:34.304Z,23.5
2022-12-23T15:08:40.393Z,23.5
2022-12-23T15:13:46.540Z,23.5
2022-12-23T15:18:52.576Z,23.5
2022-12-23T15:23:57.671Z,23.5
2022-12-23T15:29:03.808Z,23.5
2022-12-23T15:34:09.843Z,23.5
2022-12-23T15:39:16.047Z,23.5
2022-12-23T15:44:22.121Z,23.5
2022-12-23T15:49:28.155Z,23.5
2022-12-23T15:54:34.341Z,23.5
2022-12-23T15:59:40.359Z,23.5
2022-12-23T16:04:46.421Z,23.5
2022-12-23T16:09:52.542Z,23
2022-12-23T16:14:58.656Z,23.5
2022-12-23T16:20:04.698Z,23.5
2022-12-23T16:30:16.960Z,23.5
2022-12-23T16:35:22.094Z,23.5
2022-12-23T16:40:28.129Z,23.5
2022-12-23T16:45:34.087Z,24
2022-12-23T16:50:40.320Z,24
2022-12-23T16:55:46.483Z,24
2022-12-23T17:00:52.437Z,24
2022-12-23T17:05:58.456Z,24
2022-12-23T17:11:04.549Z,23.5
2022-12-23T17:16:10.781Z,23.5
2022-12-23T17:21:16.907Z,23.5
2022-12-23T17:26:23.020Z,23.5
2022-12-23T17:31:29.032Z,23.5
2022-12-23T17:36:35.209Z,23.5
2022-12-23T17:41:40.303Z,23.5
2022-12-23T17:46:46.505Z,23.5
2022-12-23T17:51:52.494Z,23.5
2022-12-23T17:56:58.597Z,23.5
2022-12-23T18:02:04.665Z,23.5
2022-12-23T18:07:10.721Z,23.5
2022-12-23T18:12:16.702Z,24
2022-12-23T18:17:22.908Z,23.5
2022-12-23T18:22:29.111Z,23.5
2022-12-23T18:27:34.999Z,23.5
2022-12-23T18:32:41.154Z,24
2022-12-23T18:37:47.280Z,24
2022-12-23T18:42:53.406Z,24
2022-12-23T18:47:58.413Z,24
2022-12-23T18:53:04.517Z,24
2022-12-23T18:58:10.604Z,24
2022-12-23T19:03:16.691Z,24
2022-12-23T19:08:22.784Z,24
2022-12-23T19:18:34.980Z,24
2022-12-23T19:23:41.087Z,24
2022-12-23T19:28:47.222Z,24
2022-12-23T19:33:53.284Z,24
2022-12-23T19:38:59.516Z,24
2022-12-23T19:44:05.441Z,24
2022-12-23T19:49:11.588Z,24
2022-12-23T19:54:16.803Z,24
2022-12-23T19:59:22.783Z,24
2022-12-23T20:04:29.009Z,24
2022-12-23T20:09:34.983Z,24
2022-12-23T20:14:41.203Z,24
2022-12-23T20:19:47.143Z,24
2022-12-23T20:24:53.233Z,24
2022-12-23T20:29:59.319Z,24.5
2022-12-23T20:35:05.449Z,24.5
2022-12-23T20:40:11.575Z,24.5
2022-12-23T20:45:17.676Z,24.5
2022-12-23T20:50:23.720Z,24.5
2022-12-23T20:55:29.813Z,24.5
2022-12-23T21:00:34.981Z,24.5
2022-12-23T21:05:41.025Z,25
2022-12-23T21:10:47.119Z,25
2022-12-23T21:15:53.200Z,25
2022-12-23T21:20:59.314Z,25
2022-12-23T21:26:05.408Z,25
2022-12-23T21:31:11.501Z,25
2022-12-23T21:36:17.622Z,25
2022-12-23T21:41:23.753Z,25
2022-12-23T21:46:29.794Z,25
2022-12-23T21:51:35.902Z,25
2022-12-23T21:56:41.999Z,25
2022-12-23T22:01:48.076Z,25
2022-12-23T22:06:53.180Z,25
2022-12-23T22:11:59.391Z,25
2022-12-23T22:17:05.418Z,25
2022-12-23T22:22:11.617Z,25
2022-12-23T22:27:17.639Z,24.5
2022-12-23T22:32:23.760Z,25
2022-12-23T22:37:29.855Z,25
2022-12-23T22:42:35.873Z,24.5
2022-12-23T22:47:41.971Z,25
2022-12-23T22:52:48.152Z,26
2022-12-23T22:57:54.178Z,26
2022-12-23T23:03:00.295Z,26
2022-12-23T23:08:06.335Z,25.5
2022-12-23T23:13:11.431Z,26
2022-12-23T23:18:17.539Z,25.5
2022-12-23T23:23:23.631Z,26
2022-12-23T23:28:29.799Z,26
2022-12-23T23:33:35.902Z,26
2022-12-23T23:38:41.931Z,25
2022-12-23T23:43:48.015Z,25
2022-12-23T23:48:54.116Z,25
2022-12-23T23:54:00.197Z,26
2022-12-23T23:59:06.316Z,25
